createdAt,value
2019-04-03T00:01:09.966Z,95136.03
2019-04-03T00:03:39.464Z,95138.98
2019-04-03T00:06:09.123Z,95129.73
2019-04-03T00:08:38.666Z,95136.38
2019-04-03T00:11:09.442Z,95134.80
2019-04-03T00:13:41.238Z,95134.47
2019-04-03T00:16:10.589Z,95130.45
2019-04-03T00:18:40.117Z,95136.80
2019-04-03T00:21:09.647Z,95133.58
2019-04-03T00:23:39.286Z,95140.16
2019-04-03T00:26:08.868Z,95139.67
2019-04-03T00:28:38.360Z,95133.02
2019-04-03T00:31:07.818Z,95126.34
2019-04-03T00:33:37.398Z,95122.27
2019-04-03T00:36:06.899Z,95123.13
2019-04-03T00:38:36.389Z,95122.64
2019-04-03T00:41:06.406Z,95117.42
2019-04-03T00:43:35.906Z,95116.16
2019-04-03T00:46:05.452Z,95111.44
2019-04-03T00:48:34.959Z,95120.06
2019-04-03T00:51:04.474Z,95113.06
2019-04-03T00:53:34.038Z,95110.30
2019-04-03T00:56:03.639Z,95108.83
2019-04-03T00:58:37.393Z,95106.09
2019-04-03T01:01:10.073Z,95108.05
2019-04-03T01:03:39.619Z,95105.80
2019-04-03T01:06:09.315Z,95106.78
2019-04-03T01:08:38.833Z,95100.59
2019-04-03T01:11:08.447Z,95099.62
2019-04-03T01:13:37.950Z,95097.04
2019-04-03T01:16:07.671Z,95099.81
2019-04-03T01:18:37.313Z,95099.97
2019-04-03T01:21:07.158Z,95097.86
2019-04-03T01:23:37.858Z,95103.03
2019-04-03T01:26:09.690Z,95109.22
2019-04-03T01:28:41.473Z,95100.63
2019-04-03T01:31:14.866Z,95104.20
2019-04-03T01:33:46.470Z,95096.41
2019-04-03T01:36:17.606Z,95088.33
2019-04-03T01:38:49.255Z,95090.97
2019-04-03T01:41:20.222Z,95094.38
2019-04-03T01:43:49.738Z,95089.02
2019-04-03T01:46:19.349Z,95087.72
2019-04-03T01:48:48.850Z,95084.30
2019-04-03T01:51:18.411Z,95078.44
2019-04-03T01:53:48.015Z,95077.63
2019-04-03T01:56:17.581Z,95080.22
2019-04-03T01:58:47.147Z,95072.28
2019-04-03T02:01:16.696Z,95075.34
2019-04-03T02:03:46.138Z,95081.86
2019-04-03T02:06:15.864Z,95085.58
2019-04-03T02:08:45.574Z,95082.83
2019-04-03T02:11:15.141Z,95081.52
2019-04-03T02:13:44.630Z,95080.70
2019-04-03T02:16:14.134Z,95084.41
2019-04-03T02:18:43.570Z,95075.97
2019-04-03T02:21:13.097Z,95074.34
2019-04-03T02:23:42.665Z,95081.50
2019-04-03T02:26:12.153Z,95074.67
2019-04-03T02:28:41.678Z,95076.30
2019-04-03T02:31:11.299Z,95081.01
2019-04-03T02:33:40.871Z,95080.17
2019-04-03T02:36:12.164Z,95082.95
2019-04-03T02:38:41.658Z,95080.95
2019-04-03T02:41:11.209Z,95085.34
2019-04-03T02:43:41.106Z,95083.08
2019-04-03T02:46:10.717Z,95077.20
2019-04-03T02:48:40.293Z,95079.16
2019-04-03T02:51:09.935Z,95082.72
2019-04-03T02:53:39.905Z,95075.52
2019-04-03T02:56:11.869Z,95077.66
2019-04-03T02:58:40.611Z,95077.78
2019-04-03T03:01:10.081Z,95078.60
2019-04-03T03:03:39.591Z,95076.95
2019-04-03T03:06:09.349Z,95081.33
2019-04-03T03:08:41.663Z,95084.41
2019-04-03T03:11:10.393Z,95086.03
2019-04-03T03:13:39.981Z,95089.45
2019-04-03T03:16:10.265Z,95088.75
2019-04-03T03:18:40.557Z,95095.24
2019-04-03T03:21:12.866Z,95090.75
2019-04-03T03:23:42.281Z,95094.97
2019-04-03T03:26:12.364Z,95093.31
2019-04-03T03:28:46.070Z,95093.13
2019-04-03T03:31:15.273Z,95091.98
2019-04-03T03:33:45.388Z,95097.51
2019-04-03T03:36:20.514Z,95094.77
2019-04-03T03:38:47.440Z,95090.72
2019-04-03T03:41:22.053Z,95086.79
2019-04-03T03:43:49.152Z,95088.88
2019-04-03T03:46:19.043Z,95084.80
2019-04-03T03:48:49.112Z,95089.38
2019-04-03T03:51:19.717Z,95088.05
2019-04-03T03:53:49.896Z,95081.89
2019-04-03T03:56:21.036Z,95081.90
2019-04-03T03:58:51.393Z,95084.16
2019-04-03T04:01:21.442Z,95084.16
2019-04-03T04:03:51.042Z,95092.58
2019-04-03T04:06:21.395Z,95097.77
2019-04-03T04:08:52.443Z,95090.95
2019-04-03T04:11:22.478Z,95096.28
2019-04-03T04:13:52.253Z,95102.14
2019-04-03T04:16:22.207Z,95098.06
2019-04-03T04:18:55.610Z,95102.03
2019-04-03T04:21:23.127Z,95109.25
2019-04-03T04:23:53.158Z,95103.45
2019-04-03T04:26:24.225Z,95104.30
2019-04-03T04:28:53.992Z,95106.78
2019-04-03T04:31:23.579Z,95107.28
2019-04-03T04:33:53.058Z,95108.13
2019-04-03T04:36:24.228Z,95107.00
2019-04-03T04:38:53.996Z,95101.16
2019-04-03T04:41:23.648Z,95103.11
2019-04-03T04:43:53.244Z,95101.16
2019-04-03T04:46:22.880Z,95104.55
2019-04-03T04:48:52.482Z,95105.69
2019-04-03T04:51:22.146Z,95099.05
2019-04-03T04:53:51.660Z,95099.84
2019-04-03T04:56:21.190Z,95103.73
2019-04-03T04:58:50.678Z,95104.72
2019-04-03T05:01:20.267Z,95106.20
2019-04-03T05:03:49.832Z,95107.48
2019-04-03T05:06:19.544Z,95107.84
2019-04-03T05:08:49.242Z,95108.66
2019-04-03T05:11:18.796Z,95108.02
2019-04-03T05:13:48.323Z,95108.16
2019-04-03T05:16:20.189Z,95106.41
2019-04-03T05:18:49.302Z,95105.73
2019-04-03T05:21:19.688Z,95104.62
2019-04-03T05:23:50.329Z,95107.05
2019-04-03T05:26:21.484Z,95102.05
2019-04-03T05:28:55.856Z,95101.06
2019-04-03T05:31:22.885Z,95102.03
2019-04-03T05:33:52.411Z,95103.30
2019-04-03T05:36:21.981Z,95104.78
2019-04-03T05:38:53.542Z,95101.98
2019-04-03T05:41:23.020Z,95101.02
2019-04-03T05:43:52.601Z,95098.58
2019-04-03T05:46:22.193Z,95098.38
2019-04-03T05:48:51.743Z,95091.86
2019-04-03T05:51:21.218Z,95085.70
2019-04-03T05:53:53.547Z,95087.66
2019-04-03T05:56:22.268Z,95090.39
2019-04-03T05:58:55.909Z,95094.84
2019-04-03T06:01:23.356Z,95086.37
2019-04-03T06:03:53.241Z,95092.08
2019-04-03T06:06:22.813Z,95085.97
2019-04-03T06:08:52.396Z,95088.41
2019-04-03T06:11:22.149Z,95088.58
2019-04-03T06:13:51.897Z,95090.20
2019-04-03T06:16:24.541Z,95082.16
2019-04-03T06:18:53.099Z,95088.02
2019-04-03T06:21:22.635Z,95084.05
2019-04-03T06:23:53.023Z,95082.72
2019-04-03T06:26:23.404Z,95082.88
2019-04-03T06:28:53.194Z,95088.38
2019-04-03T06:31:25.728Z,95083.21
2019-04-03T06:33:54.371Z,95080.13
2019-04-03T06:36:23.887Z,95078.94
2019-04-03T06:38:54.259Z,95079.49
2019-04-03T06:41:24.990Z,95075.29
2019-04-03T06:43:54.687Z,95073.67
2019-04-03T06:46:24.102Z,95070.20
2019-04-03T06:48:55.196Z,95072.27
2019-04-03T06:51:25.022Z,95073.78
2019-04-03T06:53:54.796Z,95071.98
2019-04-03T06:56:24.720Z,95068.45
2019-04-03T06:58:54.229Z,95073.44
2019-04-03T07:01:23.911Z,95077.47
2019-04-03T07:03:53.590Z,95075.62
2019-04-03T07:06:23.104Z,95077.02
2019-04-03T07:08:52.773Z,95066.03
2019-04-03T07:11:23.967Z,95074.43
2019-04-03T07:13:54.477Z,95074.28
2019-04-03T07:16:24.428Z,95069.78
2019-04-03T07:18:53.954Z,95071.19
2019-04-03T07:21:23.996Z,95073.48
2019-04-03T07:23:54.706Z,95074.88
2019-04-03T07:26:24.233Z,95076.41
2019-04-03T07:28:53.804Z,95074.85
2019-04-03T07:31:24.353Z,95072.66
2019-04-03T07:33:54.072Z,95071.69
2019-04-03T07:36:23.920Z,95073.81
2019-04-03T07:38:53.430Z,95075.76
2019-04-03T07:41:23.504Z,95080.66
2019-04-03T07:43:53.121Z,95077.44
2019-04-03T07:46:22.605Z,95085.16
2019-04-03T07:48:52.160Z,95080.05
2019-04-03T07:51:21.932Z,95086.34
2019-04-03T07:53:52.615Z,95086.27
2019-04-03T07:56:25.574Z,95082.52
2019-04-03T07:58:54.184Z,95083.63
2019-04-03T08:01:23.765Z,95086.44
2019-04-03T08:03:53.815Z,95081.91
2019-04-03T08:06:23.619Z,95077.70
2019-04-03T08:09:06.913Z,95073.20
2019-04-03T08:11:24.654Z,95075.52
2019-04-03T08:13:54.131Z,95076.38
2019-04-03T08:16:23.641Z,95078.00
2019-04-03T08:18:53.220Z,95069.06
2019-04-03T08:21:22.920Z,95071.67
2019-04-03T08:23:52.961Z,95061.98
2019-04-03T08:26:22.560Z,95056.81
2019-04-03T08:28:52.065Z,95065.17
2019-04-03T08:31:21.613Z,95060.26
2019-04-03T08:33:51.123Z,95058.45
2019-04-03T08:36:25.376Z,95054.36
2019-04-03T08:38:51.999Z,95059.35
2019-04-03T08:41:24.060Z,95056.39
2019-04-03T08:43:55.039Z,95056.33
2019-04-03T08:46:24.912Z,95060.03
2019-04-03T08:48:55.443Z,95055.36
2019-04-03T08:51:25.441Z,95051.43
2019-04-03T08:53:54.981Z,95047.37
2019-04-03T08:56:24.503Z,95046.23
2019-04-03T08:58:56.538Z,95045.06
2019-04-03T09:01:25.459Z,95047.16
2019-04-03T09:03:54.937Z,95040.05
2019-04-03T09:06:24.850Z,95035.80
2019-04-03T09:08:57.257Z,95035.17
2019-04-03T09:11:25.672Z,95029.17
2019-04-03T09:13:55.820Z,95024.79
2019-04-03T09:16:25.856Z,95017.31
2019-04-03T09:18:55.691Z,95014.86
2019-04-03T09:21:25.190Z,95017.67
2019-04-03T09:23:57.878Z,95014.27
2019-04-03T09:26:26.762Z,95008.30
2019-04-03T09:28:56.284Z,94999.84
2019-04-03T09:31:26.187Z,95003.34
2019-04-03T09:33:57.329Z,94989.34
2019-04-03T09:36:27.186Z,94993.59
2019-04-03T09:38:56.728Z,94988.75
2019-04-03T09:41:26.303Z,94986.23
2019-04-03T09:43:55.799Z,94975.44
2019-04-03T09:46:25.723Z,94973.20
2019-04-03T09:48:55.315Z,94971.92
2019-04-03T09:51:24.886Z,94967.16
2019-04-03T09:53:57.068Z,94966.72
2019-04-03T09:56:25.697Z,94962.64
2019-04-03T09:58:56.209Z,94954.95
2019-04-03T10:01:26.405Z,94948.55
2019-04-03T10:03:56.342Z,94950.59
2019-04-03T10:06:25.836Z,94945.56
2019-04-03T10:08:55.827Z,94942.99
2019-04-03T10:11:25.458Z,94937.98
2019-04-03T10:13:57.761Z,94940.92
2019-04-03T10:16:26.350Z,94924.37
2019-04-03T10:18:55.876Z,94925.66
2019-04-03T10:21:25.452Z,94923.33
2019-04-03T10:23:55.014Z,94923.88
2019-04-03T10:26:24.607Z,94922.15
2019-04-03T10:28:54.183Z,94904.52
2019-04-03T10:31:24.451Z,94905.91
2019-04-03T10:33:54.461Z,94898.94
2019-04-03T10:36:24.174Z,94896.23
2019-04-03T10:38:53.701Z,94901.92
2019-04-03T10:41:23.206Z,94884.98
2019-04-03T10:43:52.750Z,94893.78
2019-04-03T10:46:22.298Z,94886.98
2019-04-03T10:48:51.864Z,94885.75
2019-04-03T10:51:21.423Z,94881.64
2019-04-03T10:53:52.440Z,94876.34
2019-04-03T10:56:22.498Z,94871.58
2019-04-03T10:58:52.095Z,94864.02
2019-04-03T11:01:21.654Z,94864.16
2019-04-03T11:03:52.019Z,94858.92
2019-04-03T11:06:21.649Z,94856.33
2019-04-03T11:08:51.145Z,94852.49
2019-04-03T11:11:20.707Z,94850.05
2019-04-03T11:13:50.213Z,94835.36
2019-04-03T11:16:19.754Z,94837.19
2019-04-03T11:18:58.447Z,94832.21
2019-04-03T11:21:20.738Z,94829.56
2019-04-03T11:23:50.276Z,94830.23
2019-04-03T11:26:23.558Z,94821.05
2019-04-03T11:28:53.088Z,94823.19
2019-04-03T11:31:27.156Z,94818.20
2019-04-03T11:33:53.910Z,94813.52
2019-04-03T11:36:25.634Z,94803.72
2019-04-03T11:39:06.496Z,94804.05
2019-04-03T11:44:26.850Z,94804.67
2019-04-03T11:47:12.347Z,94795.81
2019-04-03T11:49:41.137Z,94784.78
2019-04-03T11:52:10.858Z,94783.72
2019-04-03T11:54:40.838Z,94785.57
2019-04-03T11:57:10.333Z,94772.30
2019-04-03T11:59:40.249Z,94772.75
2019-04-03T12:02:10.569Z,94763.22
2019-04-03T12:04:41.702Z,94761.42
2019-04-03T12:07:11.333Z,94764.02
2019-04-03T12:09:40.865Z,94763.03
2019-04-03T12:12:12.119Z,94761.94
2019-04-03T12:14:41.798Z,94764.77
2019-04-03T12:17:11.302Z,94760.95
2019-04-03T12:19:40.833Z,94752.63
2019-04-03T12:22:10.393Z,94752.30
2019-04-03T12:24:39.928Z,94742.81
2019-04-03T12:27:17.832Z,94747.46
2019-04-03T12:29:47.621Z,94741.05
2019-04-03T12:32:36.652Z,94732.36
2019-04-03T12:35:09.846Z,94728.55
2019-04-03T12:37:40.101Z,94733.91
2019-04-03T12:40:11.622Z,94732.18
2019-04-03T12:42:41.272Z,94718.94
2019-04-03T12:45:11.139Z,94724.52
2019-04-03T12:47:42.992Z,94724.23
2019-04-03T12:50:13.449Z,94724.53
2019-04-03T12:52:44.907Z,94715.11
2019-04-03T12:55:16.174Z,94724.22
2019-04-03T12:57:45.648Z,94718.05
2019-04-03T13:00:16.838Z,94710.97
2019-04-03T13:02:46.430Z,94717.86
2019-04-03T13:05:17.561Z,94705.00
2019-04-03T13:07:47.694Z,94704.37
2019-04-03T13:10:17.668Z,94713.44
2019-04-03T13:12:47.314Z,94700.77
2019-04-03T13:15:17.216Z,94696.87
2019-04-03T13:17:46.839Z,94700.30
2019-04-03T13:20:16.679Z,94700.13
2019-04-03T13:22:46.290Z,94702.27
2019-04-03T13:25:16.188Z,94695.14
2019-04-03T13:27:47.287Z,94697.59
2019-04-03T13:30:17.236Z,94699.49
2019-04-03T13:32:57.434Z,94687.31
2019-04-03T13:35:18.691Z,94693.40
2019-04-03T13:37:48.441Z,94685.94
2019-04-03T13:40:18.830Z,94691.60
2019-04-03T13:42:49.479Z,94688.64
2019-04-03T13:45:19.709Z,94691.67
2019-04-03T13:47:49.247Z,94686.92
2019-04-03T13:50:21.738Z,94687.47
2019-04-03T13:52:50.716Z,94685.58
2019-04-03T13:55:20.946Z,94680.03
2019-04-03T13:57:51.381Z,94681.34
2019-04-03T14:00:23.466Z,94673.84
2019-04-03T14:02:52.771Z,94675.11
2019-04-03T14:05:22.365Z,94676.95
2019-04-03T14:07:51.867Z,94677.10
2019-04-03T14:10:21.462Z,94682.70
2019-04-03T14:12:51.897Z,94680.27
2019-04-03T14:15:21.989Z,94679.13
2019-04-03T14:17:56.428Z,94677.41
2019-04-03T14:20:24.937Z,94677.70
2019-04-03T14:22:54.549Z,94669.20
2019-04-03T14:25:28.082Z,94665.66
2019-04-03T14:27:55.990Z,94675.66
2019-04-03T14:30:25.804Z,94676.32
2019-04-03T14:32:55.391Z,94671.57
2019-04-03T14:35:45.959Z,94668.38
2019-04-03T14:37:59.501Z,94668.64
2019-04-03T14:40:27.974Z,94670.30
2019-04-03T14:42:58.685Z,94663.47
2019-04-03T14:45:29.047Z,94658.09
2019-04-03T14:47:58.567Z,94660.21
2019-04-03T14:50:28.279Z,94656.72
2019-04-03T14:52:58.204Z,94663.25
2019-04-03T14:55:28.731Z,94657.45
2019-04-03T14:57:58.882Z,94659.95
2019-04-03T15:00:31.221Z,94655.34
2019-04-03T15:03:04.186Z,94662.88
2019-04-03T15:05:44.859Z,94662.22
2019-04-03T15:08:12.112Z,94666.95
2019-04-03T15:10:41.813Z,94672.82
2019-04-03T15:13:13.678Z,94655.14
2019-04-03T15:15:42.917Z,94667.65
2019-04-03T15:18:12.543Z,94655.27
2019-04-03T15:20:42.417Z,94662.77
2019-04-03T15:23:12.137Z,94671.11
2019-04-03T15:25:43.206Z,94662.89
2019-04-03T15:28:13.118Z,94657.48
2019-04-03T15:30:43.673Z,94661.16
2019-04-03T15:33:13.876Z,94665.35
2019-04-03T15:35:43.733Z,94670.68
2019-04-03T15:38:15.062Z,94668.27
2019-04-03T15:40:44.666Z,94672.89
2019-04-03T15:43:16.245Z,94678.05
2019-04-03T15:45:46.545Z,94674.17
2019-04-03T15:48:16.042Z,94670.08
2019-04-03T15:50:45.685Z,94667.95
2019-04-03T15:53:15.174Z,94669.55
2019-04-03T15:55:44.747Z,94670.21
2019-04-03T15:58:14.217Z,94669.55
2019-04-03T16:00:43.876Z,94667.06
2019-04-03T16:03:14.979Z,94671.48
2019-04-03T16:05:44.961Z,94667.75
2019-04-03T16:08:14.500Z,94672.77
2019-04-03T16:10:44.233Z,94675.31
2019-04-03T16:13:15.827Z,94673.41
2019-04-03T16:15:45.023Z,94677.36
2019-04-03T16:18:14.720Z,94672.69
2019-04-03T16:20:44.743Z,94675.19
2019-04-03T16:23:16.007Z,94685.47
2019-04-03T16:25:48.484Z,94682.54
2019-04-03T16:28:17.337Z,94682.25
2019-04-03T16:30:50.610Z,94684.42
2019-04-03T16:33:21.980Z,94683.91
2019-04-03T16:35:49.676Z,94686.11
2019-04-03T16:38:19.294Z,94682.80
2019-04-03T16:40:48.992Z,94685.17
2019-04-03T16:43:19.878Z,94682.74
2019-04-03T16:45:50.042Z,94689.90
2019-04-03T16:48:19.703Z,94688.66
2019-04-03T16:50:49.544Z,94687.91
2019-04-03T16:53:20.715Z,94689.83
2019-04-03T16:55:50.678Z,94700.70
2019-04-03T16:58:20.912Z,94690.22
2019-04-03T17:00:50.572Z,94696.13
2019-04-03T17:03:20.157Z,94703.47
2019-04-03T17:05:49.719Z,94695.84
2019-04-03T17:08:19.477Z,94694.05
2019-04-03T17:10:49.096Z,94700.66
2019-04-03T17:13:18.862Z,94699.40
2019-04-03T17:15:49.994Z,94703.38
2019-04-03T17:18:19.516Z,94711.17
2019-04-03T17:20:50.544Z,94711.92
2019-04-03T17:23:20.354Z,94710.11
2019-04-03T17:25:51.617Z,94719.59
2019-04-03T17:28:22.002Z,94714.61
2019-04-03T17:30:52.449Z,94728.80
2019-04-03T17:33:22.238Z,94718.73
2019-04-03T17:35:52.153Z,94725.23
2019-04-03T17:38:21.809Z,94733.83
2019-04-03T17:40:51.730Z,94735.75
2019-04-03T17:43:22.709Z,94744.43
2019-04-03T17:45:52.349Z,94737.39
2019-04-03T17:48:22.856Z,94747.02
2019-04-03T17:50:53.277Z,94753.16
2019-04-03T17:53:23.011Z,94751.05
2019-04-03T17:55:52.555Z,94755.69
2019-04-03T17:58:22.126Z,94756.02
2019-04-03T18:00:52.579Z,94757.22
2019-04-03T18:03:22.237Z,94756.72
2019-04-03T18:05:51.843Z,94761.27
2019-04-03T18:08:21.347Z,94757.62
2019-04-03T18:10:50.841Z,94762.80
2019-04-03T18:13:23.140Z,94767.84
2019-04-03T18:15:51.588Z,94767.34
2019-04-03T18:18:21.084Z,94771.17
2019-04-03T18:20:50.638Z,94778.05
2019-04-03T18:23:21.655Z,94772.81
2019-04-03T18:25:51.469Z,94770.37
2019-04-03T18:28:21.241Z,94778.55
2019-04-03T18:30:50.913Z,94773.00
2019-04-03T18:33:20.504Z,94776.62
2019-04-03T18:35:50.116Z,94777.02
2019-04-03T18:38:19.978Z,94775.71
2019-04-03T18:40:49.822Z,94780.87
2019-04-03T18:43:21.609Z,94780.87
2019-04-03T18:45:50.865Z,94784.28
2019-04-03T18:48:20.398Z,94791.14
2019-04-03T18:50:49.942Z,94781.66
2019-04-03T18:53:19.615Z,94786.67
2019-04-03T18:55:49.375Z,94789.79
2019-04-03T18:58:19.006Z,94792.80
2019-04-03T19:00:48.565Z,94789.87
2019-04-03T19:03:18.084Z,94791.09
2019-04-03T19:05:48.114Z,94789.48
2019-04-03T19:08:18.219Z,94788.55
2019-04-03T19:10:48.513Z,94787.23
2019-04-03T19:13:18.205Z,94785.81
2019-04-03T19:15:47.775Z,94789.43
2019-04-03T19:18:19.607Z,94787.42
2019-04-03T19:20:49.345Z,94785.61
2019-04-03T19:23:18.948Z,94784.84
2019-04-03T19:25:48.580Z,94788.96
2019-04-03T19:28:19.197Z,94792.18
2019-04-03T19:30:48.789Z,94790.45
2019-04-03T19:33:18.415Z,94789.73
2019-04-03T19:35:48.204Z,94797.98
2019-04-03T19:38:17.979Z,94792.89
2019-04-03T19:40:50.501Z,94797.15
2019-04-03T19:43:20.011Z,94794.22
2019-04-03T19:45:49.906Z,94793.95
2019-04-03T19:48:23.881Z,94787.20
2019-04-03T19:50:54.887Z,94792.31
2019-04-03T19:53:24.519Z,94789.45
2019-04-03T19:55:54.794Z,94782.72
2019-04-03T19:58:24.852Z,94788.77
2019-04-03T20:00:54.397Z,94785.25
2019-04-03T20:03:23.955Z,94789.92
2019-04-03T20:05:55.125Z,94791.08
2019-04-03T20:08:24.831Z,94799.99
2019-04-03T20:10:54.484Z,94797.88
2019-04-03T20:13:23.988Z,94795.56
2019-04-03T20:15:54.476Z,94798.27
2019-04-03T20:18:26.046Z,94798.25
2019-04-03T20:20:55.489Z,94801.05
2019-04-03T20:23:25.126Z,94802.95
2019-04-03T20:25:54.781Z,94801.45
2019-04-03T20:28:25.293Z,94804.01
2019-04-03T20:30:54.910Z,94806.91
2019-04-03T20:33:26.417Z,94804.47
2019-04-03T20:35:56.044Z,94800.33
2019-04-03T20:38:27.427Z,94794.28
2019-04-03T20:40:56.898Z,94799.08
2019-04-03T20:43:26.707Z,94812.47
2019-04-03T20:45:56.354Z,94803.87
2019-04-03T20:48:28.022Z,94806.48
2019-04-03T20:50:57.309Z,94805.18
2019-04-03T20:53:26.841Z,94799.27
2019-04-03T20:55:58.138Z,94801.97
2019-04-03T20:58:27.686Z,94814.92
2019-04-03T21:01:05.942Z,94807.62
2019-04-03T21:03:28.614Z,94810.37
2019-04-03T21:05:58.196Z,94810.73
2019-04-03T21:08:27.763Z,94813.85
2019-04-03T21:10:57.239Z,94818.05
2019-04-03T21:13:26.745Z,94820.16
2019-04-03T21:15:56.313Z,94827.06
2019-04-03T21:18:25.796Z,94820.92
2019-04-03T21:20:55.358Z,94823.55
2019-04-03T21:23:24.845Z,94820.80
2019-04-03T21:25:54.380Z,94818.06
2019-04-03T21:28:23.916Z,94825.67
2019-04-03T21:30:54.983Z,94826.53
2019-04-03T21:33:24.627Z,94827.28
2019-04-03T21:35:54.194Z,94834.31
2019-04-03T21:38:23.770Z,94829.95
2019-04-03T21:40:55.655Z,94824.35
2019-04-03T21:43:24.508Z,94834.44
2019-04-03T21:45:53.977Z,94833.81
2019-04-03T21:48:23.468Z,94837.81
2019-04-03T21:50:52.955Z,94842.41
2019-04-03T21:53:24.201Z,94833.13
2019-04-03T21:55:53.726Z,94836.30
2019-04-03T21:58:23.225Z,94832.88
2019-04-03T22:01:20.176Z,94840.47
2019-04-03T22:03:51.451Z,94840.28
2019-04-03T22:06:21.290Z,94834.48
2019-04-03T22:08:51.652Z,94843.58
2019-04-03T22:11:21.409Z,94838.53
2019-04-03T22:13:51.116Z,94846.68
2019-04-03T22:16:20.673Z,94839.20
2019-04-03T22:18:50.279Z,94850.04
2019-04-03T22:21:19.923Z,94845.81
2019-04-03T22:23:49.505Z,94840.27
2019-04-03T22:26:19.167Z,94844.36
2019-04-03T22:28:48.763Z,94846.17
2019-04-03T22:31:18.358Z,94842.25
2019-04-03T22:33:47.905Z,94845.85
2019-04-03T22:36:17.534Z,94852.78
2019-04-03T22:38:47.178Z,94851.83
2019-04-03T22:41:16.806Z,94845.41
2019-04-03T22:43:46.662Z,94845.87
2019-04-03T22:46:16.241Z,94845.48
2019-04-03T22:48:45.860Z,94850.64
2019-04-03T22:51:15.387Z,94843.93
2019-04-03T22:53:44.912Z,94852.37
2019-04-03T22:56:16.565Z,94844.50
2019-04-03T22:58:45.827Z,94850.39
2019-04-03T23:01:15.318Z,94847.19
2019-04-03T23:03:44.933Z,94840.86
2019-04-03T23:06:14.594Z,94843.23
2019-04-03T23:08:44.194Z,94839.10
2019-04-03T23:11:13.778Z,94838.79
2019-04-03T23:13:43.365Z,94835.92
2019-04-03T23:16:13.055Z,94834.48
2019-04-03T23:18:42.687Z,94841.25
2019-04-03T23:21:12.235Z,94839.17
2019-04-03T23:23:41.902Z,94835.58
2019-04-03T23:26:11.701Z,94833.06
2019-04-03T23:28:41.319Z,94834.86
2019-04-03T23:31:11.139Z,94832.92
2019-04-03T23:33:42.473Z,94844.48
2019-04-03T23:36:12.075Z,94835.31
2019-04-03T23:38:41.717Z,94841.16
2019-04-03T23:41:11.311Z,94840.49
2019-04-03T23:43:40.875Z,94838.38
2019-04-03T23:46:10.415Z,94836.39
2019-04-03T23:48:40.174Z,94834.91
2019-04-03T23:51:22.667Z,94833.95
2019-04-03T23:53:42.949Z,94836.80
2019-04-03T23:56:12.694Z,94833.23
2019-04-03T23:58:42.437Z,94831.99
